CheckWX is a tool to help pilots better visualize weather data.  It is not intended as a substitute for an official pre-flight weather briefing.

17:58:25 UTC

KFXE TAF
Fort Lauderdale Executive Airport
Fort Lauderdale, Florida, USA
KFXE 171722Z 1718/1818 25007KT P6SM VCSH SCT025 BKN040 FM172000 17008KT P6SM VCTS SCT025CB BKN110 FM180000 VRB04KT P6SM FEW025 SCT050 SCT150 FM181500 12007KT P6SM SCT035 BKN050

Oct-17@
18:00 UTC

Oct-17 @ 18:00 UTC

Oct-17@
20:00 UTC

Oct-17 @ 20:00 UTC

KFXE 171722Z 1718/1818 25007KT P6SM VCSH SCT025 BKN040
Wind
  • 250° at 7 KTS
Cloud Levels
  • Scattered at 2,500' AGL
  • Broken at 4,000' AGL

Oct-17@
20:00 UTC

Oct-17 @ 20:00 UTC

Oct-18@
00:00 UTC

Oct-18 @ 00:00 UTC

FM172000 17008KT P6SM VCTS SCT025CB BKN110

From

From Standard forecast or significant change

Wind
  • 170° at 8 KTS
Conditions
Area Thunderstorm
Cloud Levels
  • Scattered at 2,500' AGL
  • Broken at 11,000' AGL

Oct-18@
00:00 UTC

Oct-18 @ 00:00 UTC

Oct-18@
15:00 UTC

Oct-18 @ 15:00 UTC

FM180000 VRB04KT P6SM FEW025 SCT050 SCT150

From

From Standard forecast or significant change

Wind
  • Variable at 4 KTS
Cloud Levels
  • Few at 2,500' AGL
  • Scattered at 5,000' AGL
  • Scattered at 15,000' AGL

Oct-18@
15:00 UTC

Oct-18 @ 15:00 UTC

Oct-18@
18:00 UTC

Oct-18 @ 18:00 UTC

FM181500 12007KT P6SM SCT035 BKN050

From

From Standard forecast or significant change

Wind
  • 120° at 7 KTS
Cloud Levels
  • Scattered at 3,500' AGL
  • Broken at 5,000' AGL